ASA67 PAKT-PASI
Flight info
| Callsign | ASA67 |
|---|---|
| Flight time | 0h 39m |
| Altitude | 26000 |
| Route | UDENE3 FLIPS |
| Aircraft | B737/M-SDE2E3FGHIRWXY/LB1 |
Departure
| Time | 2026-05-06 19:51 |
|---|---|
| Airport | Ketchikan International Airport (PAKT) |
Arrival
| Time | 2026-05-06 20:30 |
|---|---|
| Airport | Sitka Rocky Gutierrez Airport (PASI) |
| Time | Latitude | Longitude | Altitude | Speed | Heading |
|---|---|---|---|---|---|
| 2026-05-06 19:21 | 55.35662 | -131.71030 | 40 ft | 0 kts | 46° |
| 2026-05-06 19:40 | 55.35651 | -131.71050 | 38 ft | 4 kts | 48° |
| 2026-05-06 19:40 | 55.35632 | -131.71085 | 40 ft | 3 kts | 47° |
| 2026-05-06 19:40 | 55.35618 | -131.71114 | 41 ft | 4 kts | 66° |
| 2026-05-06 19:41 | 55.35613 | -131.71159 | 41 ft | 4 kts | 89° |
| 2026-05-06 19:41 | 55.35612 | -131.71179 | 41 ft | 1 kts | 89° |
| 2026-05-06 19:41 | 55.35612 | -131.71180 | 41 ft | 0 kts | 89° |
| 2026-05-06 19:44 | 55.35612 | -131.71178 | 41 ft | 1 kts | 96° |
| 2026-05-06 19:45 | 55.35606 | -131.71150 | 37 ft | 3 kts | 116° |
| 2026-05-06 19:45 | 55.35590 | -131.71120 | 39 ft | 4 kts | 136° |
| 2026-05-06 19:45 | 55.35541 | -131.71036 | 41 ft | 16 kts | 135° |
| 2026-05-06 19:45 | 55.35448 | -131.70877 | 39 ft | 21 kts | 135° |
| 2026-05-06 19:46 | 55.35345 | -131.70698 | 53 ft | 21 kts | 136° |
| 2026-05-06 19:46 | 55.35241 | -131.70526 | 70 ft | 20 kts | 137° |
| 2026-05-06 19:46 | 55.35138 | -131.70362 | 95 ft | 20 kts | 137° |
| 2026-05-06 19:46 | 55.35039 | -131.70203 | 99 ft | 19 kts | 137° |
| 2026-05-06 19:47 | 55.34946 | -131.70055 | 98 ft | 14 kts | 141° |
| 2026-05-06 19:47 | 55.34905 | -131.70030 | 100 ft | 0 kts | 182° |
| 2026-05-06 19:48 | 55.34888 | -131.70035 | 100 ft | 7 kts | 197° |
| 2026-05-06 19:49 | 55.34827 | -131.70098 | 98 ft | 12 kts | 180° |
| 2026-05-06 19:49 | 55.34762 | -131.70004 | 100 ft | 12 kts | 129° |
| 2026-05-06 19:49 | 55.34715 | -131.69902 | 97 ft | 1 kts | 141° |
| 2026-05-06 19:49 | 55.34709 | -131.69915 | 99 ft | 1 kts | 252° |
| 2026-05-06 19:50 | 55.34714 | -131.69928 | 99 ft | 1 kts | 310° |
| 2026-05-06 19:50 | 55.34716 | -131.69930 | 99 ft | 0 kts | 315° |
| 2026-05-06 19:50 | 55.34752 | -131.69994 | 99 ft | 27 kts | 315° |
| 2026-05-06 19:50 | 55.35081 | -131.70560 | 97 ft | 102 kts | 316° |
| 2026-05-06 19:51 | 55.35719 | -131.71660 | 162 ft | 151 kts | 318° |
| 2026-05-06 19:51 | 55.36471 | -131.72964 | 932 ft | 148 kts | 316° |
| 2026-05-06 19:51 | 55.37184 | -131.74233 | 1798 ft | 146 kts | 314° |
| 2026-05-06 19:51 | 55.37909 | -131.75514 | 2545 ft | 148 kts | 314° |
| 2026-05-06 19:52 | 55.38703 | -131.76903 | 3071 ft | 177 kts | 315° |
| 2026-05-06 19:52 | 55.39655 | -131.78558 | 3342 ft | 210 kts | 315° |
| 2026-05-06 19:52 | 55.40379 | -131.79815 | 3564 ft | 230 kts | 315° |
| 2026-05-06 19:52 | 55.41581 | -131.81887 | 4180 ft | 249 kts | 315° |
| 2026-05-06 19:53 | 55.42831 | -131.84028 | 5174 ft | 252 kts | 316° |
| 2026-05-06 19:53 | 55.44098 | -131.86192 | 6027 ft | 257 kts | 315° |
| 2026-05-06 19:53 | 55.45396 | -131.88408 | 6887 ft | 261 kts | 314° |
| 2026-05-06 19:53 | 55.46706 | -131.90647 | 7799 ft | 263 kts | 314° |
| 2026-05-06 19:54 | 55.47918 | -131.93081 | 8727 ft | 265 kts | 297° |
| 2026-05-06 19:54 | 55.48650 | -131.96010 | 9770 ft | 265 kts | 290° |
| 2026-05-06 19:54 | 55.49330 | -131.99067 | 10600 ft | 276 kts | 290° |
| 2026-05-06 19:54 | 55.50047 | -132.02338 | 11185 ft | 293 kts | 290° |
| 2026-05-06 19:55 | 55.50791 | -132.05731 | 12024 ft | 299 kts | 290° |
| 2026-05-06 19:55 | 55.51549 | -132.09177 | 12989 ft | 303 kts | 289° |
| 2026-05-06 19:55 | 55.52322 | -132.12677 | 13941 ft | 308 kts | 289° |
| 2026-05-06 19:55 | 55.53107 | -132.16232 | 14797 ft | 313 kts | 289° |
| 2026-05-06 19:56 | 55.53905 | -132.19843 | 15654 ft | 318 kts | 289° |
| 2026-05-06 19:56 | 55.54713 | -132.23497 | 16543 ft | 322 kts | 289° |
| 2026-05-06 19:56 | 55.55533 | -132.27208 | 17420 ft | 326 kts | 290° |
| 2026-05-06 19:56 | 55.56364 | -132.30979 | 18277 ft | 331 kts | 290° |
| 2026-05-06 19:57 | 55.57156 | -132.34572 | 18989 ft | 336 kts | 290° |
| 2026-05-06 19:57 | 55.57786 | -132.37439 | 19598 ft | 337 kts | 289° |
| 2026-05-06 19:57 | 55.58635 | -132.41303 | 20454 ft | 338 kts | 289° |
| 2026-05-06 19:57 | 55.59488 | -132.45198 | 21224 ft | 342 kts | 289° |
| 2026-05-06 19:58 | 55.60340 | -132.49093 | 21980 ft | 345 kts | 289° |
| 2026-05-06 19:58 | 55.61208 | -132.53066 | 22741 ft | 348 kts | 289° |
| 2026-05-06 19:58 | 55.62082 | -132.57079 | 23511 ft | 351 kts | 289° |
| 2026-05-06 19:58 | 55.62964 | -132.61126 | 24180 ft | 354 kts | 289° |
| 2026-05-06 19:59 | 55.63856 | -132.65217 | 24885 ft | 356 kts | 289° |
| 2026-05-06 19:59 | 55.64746 | -132.69316 | 25702 ft | 356 kts | 289° |
| 2026-05-06 19:59 | 55.65636 | -132.73416 | 26117 ft | 355 kts | 289° |
| 2026-05-06 19:59 | 55.66529 | -132.77548 | 26236 ft | 365 kts | 289° |
| 2026-05-06 20:00 | 55.67452 | -132.81845 | 26265 ft | 380 kts | 289° |
| 2026-05-06 20:00 | 55.68403 | -132.86276 | 26263 ft | 386 kts | 289° |
| 2026-05-06 20:00 | 55.69496 | -132.90627 | 26259 ft | 389 kts | 298° |
| 2026-05-06 20:00 | 55.71130 | -132.94477 | 26259 ft | 391 kts | 306° |
| 2026-05-06 20:01 | 55.72865 | -132.98178 | 26277 ft | 390 kts | 306° |
| 2026-05-06 20:01 | 55.74617 | -133.01869 | 26272 ft | 391 kts | 307° |
| 2026-05-06 20:01 | 55.76373 | -133.05569 | 26268 ft | 392 kts | 307° |
| 2026-05-06 20:01 | 55.78121 | -133.09283 | 26276 ft | 392 kts | 306° |
| 2026-05-06 20:02 | 55.79860 | -133.13007 | 26264 ft | 392 kts | 306° |
| 2026-05-06 20:02 | 55.81596 | -133.16751 | 26261 ft | 392 kts | 306° |
| 2026-05-06 20:02 | 55.83325 | -133.20500 | 26261 ft | 392 kts | 306° |
| 2026-05-06 20:02 | 55.85051 | -133.24258 | 26263 ft | 392 kts | 306° |
| 2026-05-06 20:03 | 55.86774 | -133.28017 | 26263 ft | 392 kts | 306° |
| 2026-05-06 20:03 | 55.88497 | -133.31784 | 26285 ft | 392 kts | 306° |
| 2026-05-06 20:03 | 55.90219 | -133.35556 | 26272 ft | 392 kts | 306° |
| 2026-05-06 20:03 | 55.91940 | -133.39330 | 26269 ft | 392 kts | 306° |
| 2026-05-06 20:04 | 55.93659 | -133.43107 | 26268 ft | 392 kts | 306° |
| 2026-05-06 20:04 | 55.95379 | -133.46893 | 26271 ft | 392 kts | 305° |
| 2026-05-06 20:04 | 55.97096 | -133.50677 | 26271 ft | 392 kts | 305° |
| 2026-05-06 20:04 | 55.98811 | -133.54467 | 26264 ft | 392 kts | 305° |
| 2026-05-06 20:05 | 56.00505 | -133.58221 | 26270 ft | 392 kts | 305° |
| 2026-05-06 20:05 | 56.02217 | -133.62019 | 26265 ft | 392 kts | 305° |
| 2026-05-06 20:05 | 56.03929 | -133.65820 | 26269 ft | 392 kts | 305° |
| 2026-05-06 20:05 | 56.05638 | -133.69619 | 26299 ft | 392 kts | 305° |
| 2026-05-06 20:06 | 56.07349 | -133.73426 | 26265 ft | 393 kts | 305° |
| 2026-05-06 20:06 | 56.09062 | -133.77242 | 26269 ft | 392 kts | 305° |
| 2026-05-06 20:06 | 56.10769 | -133.81052 | 26264 ft | 392 kts | 305° |
| 2026-05-06 20:06 | 56.12478 | -133.84871 | 26262 ft | 392 kts | 305° |
| 2026-05-06 20:07 | 56.13953 | -133.88173 | 26269 ft | 392 kts | 305° |
| 2026-05-06 20:07 | 56.15372 | -133.91353 | 26268 ft | 392 kts | 305° |
| 2026-05-06 20:07 | 56.17073 | -133.95171 | 26259 ft | 392 kts | 305° |
| 2026-05-06 20:07 | 56.18777 | -133.99003 | 26266 ft | 392 kts | 304° |
| 2026-05-06 20:08 | 56.20476 | -134.02830 | 26258 ft | 392 kts | 304° |
| 2026-05-06 20:08 | 56.22176 | -134.06664 | 26267 ft | 393 kts | 304° |
| 2026-05-06 20:08 | 56.23877 | -134.10507 | 26275 ft | 393 kts | 304° |
| 2026-05-06 20:08 | 56.25575 | -134.14355 | 26281 ft | 392 kts | 304° |
| 2026-05-06 20:09 | 56.27245 | -134.18153 | 26285 ft | 392 kts | 304° |
| 2026-05-06 20:09 | 56.28944 | -134.21997 | 26278 ft | 392 kts | 304° |
| 2026-05-06 20:09 | 56.30642 | -134.25849 | 26267 ft | 393 kts | 304° |
| 2026-05-06 20:09 | 56.32339 | -134.29708 | 26274 ft | 393 kts | 304° |
| 2026-05-06 20:10 | 56.34033 | -134.33571 | 26271 ft | 393 kts | 304° |
| 2026-05-06 20:10 | 56.35727 | -134.37442 | 26269 ft | 393 kts | 304° |
| 2026-05-06 20:10 | 56.37420 | -134.41316 | 26268 ft | 393 kts | 304° |
| 2026-05-06 20:10 | 56.39113 | -134.45197 | 26268 ft | 393 kts | 304° |
| 2026-05-06 20:11 | 56.40803 | -134.49077 | 26273 ft | 393 kts | 304° |
| 2026-05-06 20:11 | 56.42490 | -134.52957 | 26275 ft | 393 kts | 304° |
| 2026-05-06 20:11 | 56.44176 | -134.56840 | 26272 ft | 393 kts | 304° |
| 2026-05-06 20:11 | 56.45858 | -134.60720 | 26264 ft | 392 kts | 304° |
| 2026-05-06 20:12 | 56.47541 | -134.64609 | 26260 ft | 392 kts | 304° |
| 2026-05-06 20:12 | 56.49220 | -134.68492 | 26258 ft | 392 kts | 304° |
| 2026-05-06 20:12 | 56.50892 | -134.72379 | 26261 ft | 391 kts | 304° |
| 2026-05-06 20:12 | 56.52567 | -134.76264 | 26267 ft | 391 kts | 304° |
| 2026-05-06 20:13 | 56.54239 | -134.80146 | 26265 ft | 392 kts | 304° |
| 2026-05-06 20:13 | 56.55915 | -134.84051 | 26210 ft | 393 kts | 304° |
| 2026-05-06 20:13 | 56.57598 | -134.87978 | 25635 ft | 392 kts | 304° |
| 2026-05-06 20:13 | 56.59270 | -134.91881 | 24966 ft | 389 kts | 304° |
| 2026-05-06 20:14 | 56.60921 | -134.95736 | 24339 ft | 385 kts | 303° |
| 2026-05-06 20:14 | 56.62557 | -134.99570 | 23598 ft | 383 kts | 303° |
| 2026-05-06 20:14 | 56.64180 | -135.03379 | 22840 ft | 379 kts | 303° |
| 2026-05-06 20:14 | 56.65762 | -135.07103 | 22191 ft | 373 kts | 303° |
| 2026-05-06 20:15 | 56.67338 | -135.10814 | 21508 ft | 369 kts | 303° |
| 2026-05-06 20:15 | 56.68897 | -135.14496 | 20854 ft | 365 kts | 303° |
| 2026-05-06 20:15 | 56.70440 | -135.18143 | 20199 ft | 362 kts | 303° |
| 2026-05-06 20:15 | 56.71969 | -135.21766 | 19511 ft | 359 kts | 303° |
| 2026-05-06 20:16 | 56.73500 | -135.25400 | 18706 ft | 361 kts | 303° |
| 2026-05-06 20:16 | 56.75008 | -135.28984 | 17937 ft | 358 kts | 303° |
| 2026-05-06 20:16 | 56.76503 | -135.32538 | 17258 ft | 351 kts | 303° |
| 2026-05-06 20:16 | 56.77978 | -135.36050 | 16628 ft | 346 kts | 303° |
| 2026-05-06 20:17 | 56.79154 | -135.38856 | 16127 ft | 343 kts | 303° |
| 2026-05-06 20:17 | 56.80438 | -135.41928 | 15569 ft | 340 kts | 303° |
| 2026-05-06 20:17 | 56.81869 | -135.45350 | 14944 ft | 337 kts | 303° |
| 2026-05-06 20:17 | 56.83285 | -135.48739 | 14328 ft | 334 kts | 303° |
| 2026-05-06 20:18 | 56.84689 | -135.52105 | 13679 ft | 332 kts | 303° |
| 2026-05-06 20:18 | 56.86122 | -135.55385 | 13017 ft | 331 kts | 309° |
| 2026-05-06 20:18 | 56.87879 | -135.58137 | 12375 ft | 332 kts | 318° |
| 2026-05-06 20:18 | 56.89723 | -135.60662 | 11750 ft | 330 kts | 319° |
| 2026-05-06 20:19 | 56.91562 | -135.63149 | 11137 ft | 327 kts | 319° |
| 2026-05-06 20:19 | 56.93375 | -135.65627 | 10538 ft | 323 kts | 319° |
| 2026-05-06 20:19 | 56.95102 | -135.68013 | 10377 ft | 306 kts | 319° |
| 2026-05-06 20:19 | 56.96758 | -135.70320 | 10263 ft | 291 kts | 318° |
| 2026-05-06 20:20 | 56.98299 | -135.72483 | 10115 ft | 274 kts | 318° |
| 2026-05-06 20:20 | 56.99755 | -135.74536 | 10007 ft | 255 kts | 316° |
| 2026-05-06 20:20 | 57.01134 | -135.76488 | 9708 ft | 248 kts | 317° |
| 2026-05-06 20:20 | 57.02478 | -135.78392 | 9371 ft | 239 kts | 317° |
| 2026-05-06 20:21 | 57.03776 | -135.80231 | 9008 ft | 232 kts | 317° |
| 2026-05-06 20:21 | 57.05040 | -135.82022 | 8705 ft | 228 kts | 317° |
| 2026-05-06 20:21 | 57.06280 | -135.83822 | 8375 ft | 227 kts | 316° |
| 2026-05-06 20:21 | 57.07497 | -135.85665 | 8053 ft | 227 kts | 316° |
| 2026-05-06 20:22 | 57.08708 | -135.87509 | 7733 ft | 225 kts | 316° |
| 2026-05-06 20:22 | 57.10057 | -135.88977 | 7394 ft | 231 kts | 343° |
| 2026-05-06 20:22 | 57.11668 | -135.89145 | 7099 ft | 236 kts | 6° |
| 2026-05-06 20:22 | 57.13246 | -135.88226 | 6776 ft | 242 kts | 28° |
| 2026-05-06 20:23 | 57.14521 | -135.86247 | 6425 ft | 240 kts | 53° |
| 2026-05-06 20:23 | 57.15461 | -135.83734 | 6088 ft | 237 kts | 63° |
| 2026-05-06 20:23 | 57.16166 | -135.81010 | 5775 ft | 234 kts | 70° |
| 2026-05-06 20:23 | 57.16752 | -135.78212 | 5455 ft | 234 kts | 72° |
| 2026-05-06 20:24 | 57.17277 | -135.75379 | 5133 ft | 233 kts | 73° |
| 2026-05-06 20:24 | 57.17756 | -135.72540 | 4824 ft | 230 kts | 76° |
| 2026-05-06 20:24 | 57.18180 | -135.69714 | 4529 ft | 228 kts | 78° |
| 2026-05-06 20:24 | 57.18545 | -135.66923 | 4234 ft | 226 kts | 80° |
| 2026-05-06 20:25 | 57.18834 | -135.64105 | 3949 ft | 220 kts | 83° |
| 2026-05-06 20:25 | 57.18928 | -135.61340 | 3574 ft | 215 kts | 107° |
| 2026-05-06 20:25 | 57.18138 | -135.59258 | 3280 ft | 193 kts | 151° |
| 2026-05-06 20:25 | 57.17053 | -135.57941 | 3009 ft | 184 kts | 147° |
| 2026-05-06 20:26 | 57.16072 | -135.56471 | 2801 ft | 177 kts | 143° |
| 2026-05-06 20:26 | 57.15202 | -135.55010 | 2615 ft | 161 kts | 140° |
| 2026-05-06 20:26 | 57.14436 | -135.53634 | 2453 ft | 146 kts | 140° |
| 2026-05-06 20:26 | 57.13753 | -135.52428 | 2294 ft | 131 kts | 143° |
| 2026-05-06 20:27 | 57.13084 | -135.51293 | 2185 ft | 131 kts | 143° |
| 2026-05-06 20:27 | 57.12418 | -135.50143 | 2034 ft | 132 kts | 141° |
| 2026-05-06 20:27 | 57.11758 | -135.48984 | 1853 ft | 130 kts | 143° |
| 2026-05-06 20:27 | 57.11099 | -135.47862 | 1661 ft | 127 kts | 137° |
| 2026-05-06 20:28 | 57.10453 | -135.46720 | 1499 ft | 129 kts | 138° |
| 2026-05-06 20:28 | 57.09812 | -135.45579 | 1336 ft | 129 kts | 139° |
| 2026-05-06 20:28 | 57.09164 | -135.44424 | 1164 ft | 131 kts | 141° |
| 2026-05-06 20:28 | 57.08511 | -135.43253 | 976 ft | 131 kts | 141° |
| 2026-05-06 20:29 | 57.07858 | -135.42086 | 789 ft | 130 kts | 141° |
| 2026-05-06 20:29 | 57.07209 | -135.40922 | 666 ft | 131 kts | 141° |
| 2026-05-06 20:29 | 57.06563 | -135.39710 | 530 ft | 136 kts | 134° |
| 2026-05-06 20:29 | 57.05956 | -135.38364 | 305 ft | 136 kts | 140° |
| 2026-05-06 20:30 | 57.05288 | -135.37198 | 61 ft | 129 kts | 139° |
| 2026-05-06 20:30 | 57.04562 | -135.35898 | 35 ft | 10 kts | 151° |
| 2026-05-06 20:30 | 57.04542 | -135.35849 | 35 ft | 1 kts | 65° |
| 2026-05-06 20:31 | 57.04549 | -135.35856 | 35 ft | 1 kts | 315° |
| 2026-05-06 20:31 | 57.04565 | -135.35899 | 35 ft | 5 kts | 310° |
| 2026-05-06 20:31 | 57.04601 | -135.35963 | 36 ft | 11 kts | 316° |
| 2026-05-06 20:31 | 57.04671 | -135.36089 | 36 ft | 18 kts | 315° |
| 2026-05-06 20:32 | 57.04764 | -135.36257 | 37 ft | 19 kts | 316° |
| 2026-05-06 20:32 | 57.04867 | -135.36312 | 32 ft | 16 kts | 1° |
| 2026-05-06 20:32 | 57.04967 | -135.36351 | 33 ft | 15 kts | 325° |
| 2026-05-06 20:32 | 57.05042 | -135.36477 | 34 ft | 14 kts | 315° |
| 2026-05-06 20:33 | 57.05112 | -135.36601 | 33 ft | 14 kts | 316° |
| 2026-05-06 20:33 | 57.05174 | -135.36712 | 33 ft | 11 kts | 322° |
| 2026-05-06 20:33 | 57.05222 | -135.36691 | 34 ft | 6 kts | 63° |
| 2026-05-06 20:33 | 57.05232 | -135.36624 | 34 ft | 3 kts | 76° |
| 2026-05-06 20:34 | 57.05235 | -135.36605 | 34 ft | 0 kts | 74° |
| 2026-05-06 20:34 | 57.05236 | -135.36600 | 34 ft | 0 kts | 75° |